Time;durP1;ratioP1;P1;durP2;ratioP2;P2;SDS_P1;SDS_P2;PMS_P1;PMS_P2;Temp;Humidity;BMP_temperature;BMP_pressure;BME280_temperature;BME280_humidity;BME280_pressure;Samples;Min_cycle;Max_cycle;Signal;HPM_P1;HPM_P2
2022/04/14 00:00:17;;;;;;;21.33;10.70;;;;;;;17.31;56.17;100618.22;4022834;29;20425;-61
2022/04/14 00:02:20;;;;;;;21.23;12.15;;;;;;;17.34;56.28;100623.44;4024934;29;20033;-61
2022/04/14 00:04:22;;;;;;;20.15;12.40;;;;;;;17.34;55.99;100611.16;4026523;29;20382;-61
2022/04/14 00:06:25;;;;;;;20.35;12.13;;;;;;;17.33;56.36;100614.66;4023429;29;20045;-61
2022/04/14 00:08:28;;;;;;;19.45;11.90;;;;;;;17.31;56.36;100621.72;4024067;29;20144;-61
2022/04/14 00:10:31;;;;;;;23.35;12.95;;;;;;;17.39;56.49;100614.63;4023647;29;20535;-62
2022/04/14 00:12:36;;;;;;;23.98;13.60;;;;;;;17.33;56.40;100619.94;4024319;29;20037;-62
2022/04/14 00:14:38;;;;;;;21.75;11.00;;;;;;;17.28;56.36;100613.88;4023843;29;20033;-61
2022/04/14 00:16:41;;;;;;;19.65;13.20;;;;;;;17.27;56.72;100620.00;4023610;29;20059;-62
2022/04/14 00:18:44;;;;;;;18.17;12.73;;;;;;;17.28;56.87;100611.25;4034950;29;20092;-61
2022/04/14 00:20:47;;;;;;;23.55;14.95;;;;;;;17.27;56.89;100615.63;4027191;29;20041;-61
2022/04/14 00:22:50;;;;;;;30.83;16.35;;;;;;;17.36;57.15;100619.91;4024409;29;20539;-61
2022/04/14 00:24:53;;;;;;;24.70;16.90;;;;;;;17.32;56.92;100618.22;4024171;29;20080;-61
2022/04/14 00:26:56;;;;;;;27.95;17.40;;;;;;;17.21;57.44;100620.94;4026579;29;20056;-61
2022/04/14 00:29:00;;;;;;;28.70;17.98;;;;;;;17.16;57.59;100628.00;4029259;29;20047;-61
2022/04/14 00:31:04;;;;;;;28.33;17.63;;;;;;;17.14;57.57;100626.28;4025609;29;20041;-61
2022/04/14 00:33:07;;;;;;;24.98;15.32;;;;;;;17.09;57.80;100624.56;4025796;29;20073;-61
2022/04/14 00:35:10;;;;;;;26.80;17.55;;;;;;;17.09;57.68;100626.31;4025152;29;20072;-62
2022/04/14 00:37:17;;;;;;;23.23;16.67;;;;;;;17.05;57.69;100635.97;4031041;29;20461;-62
2022/04/14 00:39:20;;;;;;;21.38;16.58;;;;;;;17.00;58.09;100637.78;4027564;29;20042;-61
2022/04/14 00:41:23;;;;;;;22.08;17.92;;;;;;;17.06;58.03;100636.88;4032908;29;20045;-62
2022/04/14 00:43:30;;;;;;;29.02;18.38;;;;;;;17.06;58.08;100631.63;4026324;29;20128;-61
2022/04/14 00:45:34;;;;;;;24.48;16.98;;;;;;;17.02;58.09;100630.75;4028723;29;20125;-61
2022/04/14 00:47:38;;;;;;;27.45;18.50;;;;;;;16.99;58.11;100641.28;4027275;29;20037;-61
2022/04/14 00:49:42;;;;;;;21.98;15.77;;;;;;;16.95;58.09;100631.69;4024761;29;20072;-61
2022/04/14 00:51:45;;;;;;;26.08;17.67;;;;;;;16.94;58.08;100640.50;4027335;29;20352;-61
2022/04/14 00:53:48;;;;;;;22.80;17.40;;;;;;;16.91;58.39;100637.91;4031790;29;20041;-61
2022/04/14 00:55:51;;;;;;;27.38;20.83;;;;;;;16.93;58.44;100642.22;4025963;29;20062;-61
2022/04/14 00:57:54;;;;;;;26.35;19.45;;;;;;;16.90;58.51;100644.03;4024851;29;20492;-61
2022/04/14 00:59:57;;;;;;;29.50;19.23;;;;;;;16.87;58.72;100650.16;4027853;29;20053;-61
2022/04/14 01:02:01;;;;;;;31.05;20.25;;;;;;;16.86;58.57;100647.53;4022823;29;20037;-61
2022/04/14 01:04:05;;;;;;;28.88;22.02;;;;;;;16.90;58.68;100652.75;4025933;29;20050;-61
2022/04/14 01:06:10;;;;;;;32.45;22.88;;;;;;;16.96;58.23;100650.97;4027188;29;20125;-61
2022/04/14 01:08:14;;;;;;;;;;;;;;;16.89;58.39;100658.91;4024641;29;20133;-61
2022/04/14 01:10:17;;;;;;;31.95;24.08;;;;;;;16.85;58.61;100666.78;4033064;29;20010;-61
2022/04/14 01:12:20;;;;;;;36.05;24.30;;;;;;;16.84;58.90;100671.16;4021691;29;20080;-61
2022/04/14 01:14:27;;;;;;;29.52;22.23;;;;;;;16.79;58.95;100669.47;4035073;29;20041;-61
2022/04/14 01:16:29;;;;;;;30.85;23.23;;;;;;;16.80;58.98;100673.84;4013166;29;20458;-61
2022/04/14 01:18:34;;;;;;;33.70;23.83;;;;;;;16.77;58.75;100665.97;4025377;29;20460;-61
2022/04/14 01:20:39;;;;;;;31.00;23.35;;;;;;;16.64;59.14;100675.72;4028922;29;20056;-61
2022/04/14 01:22:48;;;;;;;33.63;24.38;;;;;;;16.66;59.83;100680.06;4024556;29;20037;-61
2022/04/14 01:24:55;;;;;;;30.35;23.65;;;;;;;16.61;59.73;100676.59;4022760;29;20128;-61
2022/04/14 01:27:00;;;;;;;28.95;21.88;;;;;;;16.50;60.07;100681.94;4024247;29;20049;-61
2022/04/14 01:29:03;;;;;;;27.58;21.38;;;;;;;16.39;59.93;100679.34;4023585;29;20037;-61
2022/04/14 01:31:06;;;;;;;30.17;22.95;;;;;;;16.49;60.18;100684.56;4024288;29;20033;-61
2022/04/14 01:33:09;;;;;;;30.05;22.27;;;;;;;16.45;59.71;100691.56;4027587;29;20128;-61
2022/04/14 01:35:12;;;;;;;28.33;23.00;;;;;;;16.45;60.16;100681.06;4023097;29;20097;-61
2022/04/14 01:37:15;;;;;;;29.42;22.95;;;;;;;16.42;60.28;100680.22;4025729;29;20041;-61
2022/04/14 01:39:18;;;;;;;26.92;21.70;;;;;;;16.45;60.13;100685.47;4026394;29;20041;-61
2022/04/14 01:41:22;;;;;;;27.52;22.02;;;;;;;16.35;60.06;100680.28;4027220;29;20049;-61
2022/04/14 01:43:25;;;;;;;29.50;22.23;;;;;;;16.36;60.40;100691.63;4024246;29;20123;-61
2022/04/14 01:45:28;;;;;;;28.08;23.98;;;;;;;16.38;60.20;100693.38;4024384;29;20050;-61
2022/04/14 01:47:32;;;;;;;30.05;24.17;;;;;;;16.33;60.28;100703.00;4026040;29;20073;-61
2022/04/14 01:49:34;;;;;;;28.45;23.70;;;;;;;16.30;60.20;100697.78;4026115;29;20101;-61
2022/04/14 01:51:38;;;;;;;33.95;23.98;;;;;;;16.25;61.15;100699.53;4038600;29;20048;-61
2022/04/14 01:53:41;;;;;;;27.00;22.73;;;;;;;16.22;60.84;100704.81;4027066;29;20135;-61
2022/04/14 01:55:43;;;;;;;29.77;21.13;;;;;;;16.15;60.80;100700.47;4025776;29;20105;-61
2022/04/14 01:57:48;;;;;;;30.63;22.92;;;;;;;16.17;60.87;100707.47;4027288;29;20053;-61
2022/04/14 01:59:51;;;;;;;31.55;24.33;;;;;;;16.19;60.74;100713.59;4023584;29;20069;-62
2022/04/14 02:01:54;;;;;;;31.02;23.92;;;;;;;16.21;60.89;100718.84;4024507;29;20121;-62
2022/04/14 02:03:58;;;;;;;31.45;23.88;;;;;;;16.20;61.13;100722.31;4029797;29;20049;-62
2022/04/14 02:06:01;;;;;;;29.45;22.77;;;;;;;16.10;61.26;100723.25;4038086;29;20065;-62
2022/04/14 02:08:04;;;;;;;31.25;24.98;;;;;;;16.22;60.82;100720.56;4026158;29;20048;-62
2022/04/14 02:10:07;;;;;;;30.02;24.98;;;;;;;16.16;61.15;100725.84;4038185;29;20041;-62
2022/04/14 02:12:11;;;;;;;31.43;23.60;;;;;;;16.14;60.76;100719.75;4025537;29;20061;-62
2022/04/14 02:14:15;;;;;;;34.53;24.77;;;;;;;16.14;61.16;100717.97;4023537;29;20133;-62
2022/04/14 02:16:18;;;;;;;38.45;23.85;;;;;;;16.08;61.22;100722.38;4026039;29;20038;-61
2022/04/14 02:18:21;;;;;;;32.78;24.27;;;;;;;16.09;61.10;100718.88;4027236;29;20042;-61
2022/04/14 02:20:24;;;;;;;31.20;24.45;;;;;;;16.14;61.04;100711.88;4028185;29;20045;-61
2022/04/14 02:22:27;;;;;;;28.73;24.27;;;;;;;16.18;60.45;100719.72;4028433;29;20037;-61
2022/04/14 02:24:30;;;;;;;26.58;23.48;;;;;;;16.05;61.30;100716.25;4027232;29;20086;-61
2022/04/14 02:26:33;;;;;;;29.77;22.85;;;;;;;16.05;60.90;100713.66;4033182;29;20522;-61
2022/04/14 02:28:36;;;;;;;30.48;20.95;;;;;;;15.98;61.10;100717.16;4027206;29;20052;-61
2022/04/14 02:30:40;;;;;;;29.00;22.08;;;;;;;15.99;60.65;100713.69;4026412;29;20049;-61
2022/04/14 02:32:43;;;;;;;30.48;21.77;;;;;;;15.99;61.21;100715.41;4028062;29;20050;-61
2022/04/14 02:34:46;;;;;;;30.25;23.17;;;;;;;16.02;60.76;100718.91;4027906;29;20068;-61
2022/04/14 02:36:49;;;;;;;26.42;22.10;;;;;;;15.95;61.19;100709.31;4030176;29;20121;-61
2022/04/14 02:38:52;;;;;;;33.75;21.35;;;;;;;15.91;61.29;100714.59;4028340;29;20045;-61
2022/04/14 02:40:54;;;;;;;27.20;21.08;;;;;;;15.85;61.83;100712.84;4030179;29;20050;-61
2022/04/14 02:42:57;;;;;;;26.92;21.75;;;;;;;15.84;61.56;100726.81;4034588;29;20041;-61
2022/04/14 02:45:01;;;;;;;31.05;22.80;;;;;;;15.84;61.31;100721.59;4028882;29;20061;-61
2022/04/14 02:47:06;;;;;;;26.90;21.05;;;;;;;15.89;61.13;100725.06;4027048;29;20084;-61
2022/04/14 02:49:09;;;;;;;31.45;21.20;;;;;;;15.76;61.81;100728.59;4032969;29;20068;-61
2022/04/14 02:51:12;;;;;;;27.13;21.48;;;;;;;15.74;61.40;100731.22;4027708;29;20076;-61
2022/04/14 02:53:15;;;;;;;27.02;21.95;;;;;;;15.76;61.79;100726.81;4032365;29;20124;-61
2022/04/14 02:55:19;;;;;;;38.30;22.42;;;;;;;15.80;61.94;100722.47;4033089;29;20045;-61
2022/04/14 02:57:22;;;;;;;31.13;21.33;;;;;;;15.84;61.43;100713.72;4032068;29;20042;-61
2022/04/14 02:59:25;;;;;;;26.77;20.98;;;;;;;15.82;61.08;100713.72;4031349;29;20125;-61
2022/04/14 03:01:28;;;;;;;26.52;22.13;;;;;;;15.75;61.36;100713.72;4033473;29;20046;-61
2022/04/14 03:03:32;;;;;;;25.85;20.88;;;;;;;15.89;61.20;100717.22;4037744;29;20116;-62
2022/04/14 03:05:35;;;;;;;35.78;21.73;;;;;;;15.76;61.59;100711.09;4029203;29;20043;-61
2022/04/14 03:07:39;;;;;;;30.55;21.65;;;;;;;15.69;62.31;100720.72;4028632;29;20049;-61
2022/04/14 03:09:42;;;;;;;30.13;22.25;;;;;;;15.63;61.24;100720.75;4029351;29;20047;-61
2022/04/14 03:11:44;;;;;;;29.55;21.63;;;;;;;15.59;62.37;100723.38;4028980;29;20047;-61
2022/04/14 03:13:47;;;;;;;25.02;20.17;;;;;;;15.71;61.92;100724.22;4029636;29;20051;-62
2022/04/14 03:15:51;;;;;;;26.65;21.65;;;;;;;15.62;61.36;100726.00;4042600;29;20037;-62
2022/04/14 03:17:54;;;;;;;26.17;20.67;;;;;;;15.68;62.10;100723.34;4033556;29;20045;-62
2022/04/14 03:19:58;;;;;;;26.67;20.85;;;;;;;15.51;62.00;100726.88;4031751;29;20050;-61
2022/04/14 03:22:01;;;;;;;25.88;20.55;;;;;;;15.55;62.73;100727.75;4028143;29;20046;-62
2022/04/14 03:24:04;;;;;;;27.42;20.17;;;;;;;15.52;62.54;100731.25;4046101;29;20044;-62
2022/04/14 03:26:09;;;;;;;25.20;20.08;;;;;;;15.60;62.55;100731.22;4036632;29;20100;-62
2022/04/14 03:28:12;;;;;;;26.60;20.48;;;;;;;15.60;61.50;100726.00;4025823;29;20141;-62
2022/04/14 03:30:15;;;;;;;28.75;22.05;;;;;;;15.75;61.30;100734.69;4030095;29;20043;-62
2022/04/14 03:32:17;;;;;;;28.63;20.55;;;;;;;15.60;62.09;100736.47;4029445;29;20042;-62
2022/04/14 03:34:20;;;;;;;30.17;21.15;;;;;;;15.55;61.90;100735.63;4031917;29;20049;-61
2022/04/14 03:36:24;;;;;;;26.88;19.90;;;;;;;15.47;62.12;100735.63;4026727;29;20048;-62
2022/04/14 03:38:27;;;;;;;29.60;21.23;;;;;;;15.56;62.01;100736.50;4030155;29;20041;-62
2022/04/14 03:40:37;;;;;;;26.90;20.77;;;;;;;15.63;62.25;100741.72;4033185;29;20430;-61
2022/04/14 03:42:40;;;;;;;24.55;20.17;;;;;;;15.52;61.86;100744.34;4030387;29;20141;-62
2022/04/14 03:44:44;;;;;;;29.55;21.65;;;;;;;15.48;62.64;100742.63;4032470;29;20170;-62
2022/04/14 03:46:46;;;;;;;28.02;17.58;;;;;;;15.45;62.53;100746.97;4030427;29;20057;-62
2022/04/14 03:48:50;;;;;;;28.63;20.83;;;;;;;15.57;62.63;100748.72;4036808;29;20049;-61
2022/04/14 03:50:54;;;;;;;24.85;19.38;;;;;;;15.41;62.03;100745.25;4034222;29;20068;-62
2022/04/14 03:52:58;;;;;;;29.80;22.27;;;;;;;15.46;62.36;100746.09;4030968;29;20041;-62
2022/04/14 03:55:01;;;;;;;;;;;;;;;15.27;62.90;100748.72;4032312;29;20046;-62
2022/04/14 03:57:05;;;;;;;31.13;21.52;;;;;;;15.43;62.76;100753.97;4034051;29;19924;-62
2022/04/14 03:59:08;;;;;;;28.23;20.83;;;;;;;15.44;62.29;100751.34;4026491;29;20093;-61
2022/04/14 04:01:11;;;;;;;27.48;20.38;;;;;;;15.44;62.26;100745.25;4028811;29;20049;-62
2022/04/14 04:03:14;;;;;;;25.55;22.67;;;;;;;15.41;63.25;100748.72;4033681;29;20040;-62
2022/04/14 04:05:17;;;;;;;27.57;22.23;;;;;;;15.44;62.98;100746.09;4032603;29;20045;-62
2022/04/14 04:07:20;;;;;;;28.65;24.75;;;;;;;15.34;63.20;100754.84;4030459;29;20060;-62
2022/04/14 04:09:26;;;;;;;29.10;23.33;;;;;;;15.44;62.23;100746.09;4033752;29;20047;-62
2022/04/14 04:11:29;;;;;;;28.92;24.58;;;;;;;15.43;62.53;100743.50;4027419;29;20511;-62
2022/04/14 04:13:32;;;;;;;32.45;23.48;;;;;;;15.41;62.04;100756.59;4030468;29;20039;-62
2022/04/14 04:15:35;;;;;;;28.33;22.95;;;;;;;15.39;63.18;100741.75;4030727;29;20040;-62
2022/04/14 04:17:39;;;;;;;32.40;25.42;;;;;;;15.40;62.33;100754.84;4026733;29;20075;-62
2022/04/14 04:19:43;;;;;;;25.95;20.67;;;;;;;15.38;63.05;100745.25;4029267;29;20041;-62
2022/04/14 04:21:46;;;;;;;32.78;24.50;;;;;;;15.44;62.80;100753.09;4027978;29;20053;-62
2022/04/14 04:23:48;;;;;;;39.35;25.90;;;;;;;15.46;62.54;100748.72;4034320;29;20499;-62
2022/04/14 04:25:53;;;;;;;32.00;24.67;;;;;;;15.49;62.41;100757.47;4030806;29;20040;-62
2022/04/14 04:27:56;;;;;;;29.05;24.58;;;;;;;15.50;62.51;100758.34;4031131;29;20045;-62
2022/04/14 04:29:58;;;;;;;32.58;23.90;;;;;;;15.48;62.42;100754.84;4031180;29;20064;-62
2022/04/14 04:32:01;;;;;;;33.38;23.40;;;;;;;15.41;62.60;100767.06;4025300;29;20041;-62
2022/04/14 04:34:04;;;;;;;32.13;24.42;;;;;;;15.48;62.37;100768.81;4024677;29;20399;-62
2022/04/14 04:36:07;;;;;;;36.28;23.65;;;;;;;15.46;62.55;100767.97;4037028;29;20124;-62
2022/04/14 04:38:10;;;;;;;29.17;22.70;;;;;;;15.36;61.95;100774.94;4051788;29;20100;-62
2022/04/14 04:40:14;;;;;;;34.03;24.02;;;;;;;15.41;62.69;100780.16;4027808;29;20042;-62
2022/04/14 04:42:18;;;;;;;27.52;22.33;;;;;;;15.35;62.47;100775.81;4043412;29;20037;-61
2022/04/14 04:44:21;;;;;;;34.55;26.70;;;;;;;15.41;62.68;100776.69;4042127;29;20041;-62
2022/04/14 04:46:24;;;;;;;35.38;24.67;;;;;;;15.37;62.84;100775.81;4042747;29;20049;-61
2022/04/14 04:48:27;;;;;;;35.90;26.20;;;;;;;15.44;62.22;100779.31;4040268;29;20096;-62
2022/04/14 04:50:30;;;;;;;35.28;26.88;;;;;;;15.40;63.29;100774.94;4043717;29;20476;-61
2022/04/14 04:52:33;;;;;;;36.80;26.58;;;;;;;15.46;61.91;100775.81;4037247;29;20054;-62
2022/04/14 04:54:36;;;;;;;31.67;24.67;;;;;;;15.27;62.87;100785.41;4026483;29;20164;-61
2022/04/14 04:56:39;;;;;;;37.15;25.75;;;;;;;15.27;62.90;100790.63;4028461;29;20049;-61
2022/04/14 04:58:43;;;;;;;32.53;25.42;;;;;;;15.28;63.04;100792.41;4035974;29;20084;-62
2022/04/14 05:00:46;;;;;;;34.05;25.75;;;;;;;15.28;62.54;100795.00;4036507;29;20037;-61
2022/04/14 05:02:49;;;;;;;30.55;23.90;;;;;;;15.16;62.70;100790.66;4034484;29;20143;-61
2022/04/14 05:04:52;;;;;;;41.38;27.52;;;;;;;15.13;63.53;100803.75;4042334;29;20124;-61
2022/04/14 05:06:55;;;;;;;32.28;25.25;;;;;;;15.15;63.08;100808.97;4046190;29;20040;-61
2022/04/14 05:08:58;;;;;;;33.92;25.45;;;;;;;15.02;63.41;100802.84;4043160;29;20049;-62
2022/04/14 05:11:01;;;;;;;35.40;26.63;;;;;;;15.05;63.64;100804.59;4031434;29;20113;-61
2022/04/14 05:13:04;;;;;;;40.50;26.52;;;;;;;15.09;63.47;100807.22;4052657;29;20053;-61
2022/04/14 05:15:11;;;;;;;33.35;26.00;;;;;;;15.07;63.13;100815.94;4028905;29;20044;-61
2022/04/14 05:17:14;;;;;;;36.28;26.92;;;;;;;15.05;63.36;100807.22;4036292;29;20300;-62
2022/04/14 05:19:17;;;;;;;29.88;24.65;;;;;;;15.14;63.06;100810.75;4044288;29;20044;-61
2022/04/14 05:21:20;;;;;;;45.67;26.48;;;;;;;15.24;62.45;100808.13;4038891;29;20052;-61
2022/04/14 05:23:22;;;;;;;39.15;26.13;;;;;;;15.15;63.41;100811.59;4036457;29;20499;-61
2022/04/14 05:25:25;;;;;;;31.05;25.38;;;;;;;15.13;63.00;100814.22;4038230;29;20041;-61
2022/04/14 05:27:28;;;;;;;31.58;24.23;;;;;;;15.02;64.15;100821.19;4040455;29;20045;-61
2022/04/14 05:29:31;;;;;;;33.63;24.85;;;;;;;15.14;63.40;100822.94;4034389;29;20108;-61
2022/04/14 05:31:36;;;;;;;40.55;24.10;;;;;;;15.11;63.77;100830.78;4045006;29;20046;-61
2022/04/14 05:33:39;;;;;;;36.13;24.70;;;;;;;15.09;63.77;100829.94;4045061;29;20103;-61
2022/04/14 05:35:43;;;;;;;37.90;24.55;;;;;;;15.15;63.55;100829.94;4052661;29;20045;-61
2022/04/14 05:37:45;;;;;;;31.67;23.58;;;;;;;15.15;63.27;100835.16;4040484;29;20041;-61
2022/04/14 05:39:48;;;;;;;34.28;25.27;;;;;;;15.09;63.91;100838.66;4044792;29;20068;-61
2022/04/14 05:41:51;;;;;;;35.58;25.30;;;;;;;15.09;63.56;100837.78;4041738;29;20504;-62
2022/04/14 05:43:55;;;;;;;34.13;24.40;;;;;;;15.12;64.06;100838.66;4041123;29;20407;-61
2022/04/14 05:45:59;;;;;;;36.15;26.35;;;;;;;15.36;63.15;100836.91;4035478;29;20041;-62
2022/04/14 05:48:04;;;;;;;40.03;23.98;;;;;;;15.21;63.58;100840.41;4037796;29;20135;-61
2022/04/14 05:50:07;;;;;;;;;;;;;;;15.14;63.92;100846.50;4043892;29;20055;-61
2022/04/14 05:52:10;;;;;;;34.65;23.80;;;;;;;15.16;64.00;100850.03;4043568;29;19931;-61
2022/04/14 05:54:14;;;;;;;38.97;24.55;;;;;;;15.24;63.55;100840.41;4045022;29;20044;-61
2022/04/14 05:56:17;;;;;;;31.13;22.35;;;;;;;15.23;63.90;100846.53;4041495;29;20048;-61
2022/04/14 05:58:20;;;;;;;37.05;24.23;;;;;;;15.15;63.56;100849.13;4032337;29;20163;-61
2022/04/14 06:00:24;;;;;;;31.75;23.48;;;;;;;15.29;64.27;100846.53;4031110;29;20041;-62
2022/04/14 06:02:27;;;;;;;37.85;24.83;;;;;;;15.29;63.50;100845.69;4036544;29;20084;-61
2022/04/14 06:04:31;;;;;;;35.15;24.45;;;;;;;15.29;64.06;100843.91;4036556;29;20050;-62
2022/04/14 06:06:34;;;;;;;39.55;24.45;;;;;;;15.41;62.68;100850.06;4033422;29;20089;-61
2022/04/14 06:08:37;;;;;;;35.92;25.42;;;;;;;15.28;63.79;100852.63;4027069;29;20048;-61
2022/04/14 06:10:40;;;;;;;35.72;26.10;;;;;;;15.34;63.15;100852.63;4035326;29;20037;-62
2022/04/14 06:12:42;;;;;;;37.75;26.45;;;;;;;15.23;63.28;100843.03;4036328;29;20064;-62
2022/04/14 06:14:46;;;;;;;35.10;24.92;;;;;;;15.17;63.71;100852.63;4037371;29;20128;-61
2022/04/14 06:16:49;;;;;;;40.00;26.33;;;;;;;15.46;62.87;100843.03;4046282;29;20123;-61
2022/04/14 06:18:52;;;;;;;34.28;25.27;;;;;;;15.33;63.41;100845.69;4053549;29;20514;-62
2022/04/14 06:20:56;;;;;;;36.15;25.50;;;;;;;15.39;63.06;100844.81;4040001;29;20120;-62
2022/04/14 06:22:59;;;;;;;36.17;24.30;;;;;;;15.43;63.63;100850.91;4023718;29;20049;-61
2022/04/14 06:25:03;;;;;;;40.63;24.77;;;;;;;15.51;62.53;100850.03;4022394;29;20155;-61
2022/04/14 06:27:06;;;;;;;36.05;24.50;;;;;;;15.56;62.13;100844.78;4023305;29;20453;-62
2022/04/14 06:29:09;;;;;;;35.78;25.60;;;;;;;15.36;63.45;100853.53;4037525;29;20052;-62
2022/04/14 06:31:12;;;;;;;31.65;23.58;;;;;;;15.35;62.94;100848.28;4030669;29;20476;-62
2022/04/14 06:33:16;;;;;;;28.98;23.27;;;;;;;15.54;62.34;100849.19;4037129;29;20085;-61
2022/04/14 06:35:19;;;;;;;30.30;23.93;;;;;;;15.30;63.73;100850.91;4029838;29;20070;-61
2022/04/14 06:37:23;;;;;;;30.08;23.17;;;;;;;15.33;63.90;100857.88;4023478;29;20097;-61
2022/04/14 06:39:26;;;;;;;34.35;23.85;;;;;;;15.39;62.60;100855.28;4039974;29;20051;-61
2022/04/14 06:41:30;;;;;;;27.42;22.45;;;;;;;15.29;63.96;100846.53;4035668;29;20053;-61
2022/04/14 06:43:33;;;;;;;26.65;21.02;;;;;;;15.28;64.46;100846.53;4035616;29;20128;-61
2022/04/14 06:45:36;;;;;;;28.55;23.35;;;;;;;15.45;62.68;100851.78;4041566;29;20036;-61
2022/04/14 06:47:39;;;;;;;30.10;23.60;;;;;;;15.50;63.26;100850.03;4035592;29;20119;-61
2022/04/14 06:49:42;;;;;;;29.73;21.85;;;;;;;15.53;63.08;100844.78;4035709;29;20057;-62
2022/04/14 06:51:45;;;;;;;28.38;22.27;;;;;;;15.53;63.05;100852.66;4035808;29;20033;-61
2022/04/14 06:53:49;;;;;;;33.30;23.00;;;;;;;15.67;63.05;100853.53;4035807;29;20065;-61
2022/04/14 06:55:53;;;;;;;30.55;22.10;;;;;;;15.54;63.44;100855.28;4035845;29;20043;-61
2022/04/14 06:57:58;;;;;;;28.65;22.15;;;;;;;15.63;62.74;100851.78;4034255;29;20073;-61
2022/04/14 07:00:01;;;;;;;30.77;20.67;;;;;;;15.60;63.63;100851.78;4036049;29;20041;-61
2022/04/14 07:02:04;;;;;;;32.60;22.35;;;;;;;15.65;63.00;100850.06;4036001;29;20133;-61
2022/04/14 07:04:07;;;;;;;32.03;21.08;;;;;;;15.71;63.03;100860.53;4028661;29;20044;-61
2022/04/14 07:06:10;;;;;;;35.55;23.50;;;;;;;15.81;63.25;100855.28;4038253;29;20045;-61
2022/04/14 07:08:13;;;;;;;35.50;23.40;;;;;;;15.77;63.74;100853.50;4028866;29;20120;-61
2022/04/14 07:10:18;;;;;;;32.47;21.83;;;;;;;15.84;63.10;100860.53;4037317;29;20045;-61
2022/04/14 07:12:21;;;;;;;32.00;22.33;;;;;;;15.98;62.76;100856.16;4036139;29;20152;-61
2022/04/14 07:14:25;;;;;;;30.17;23.35;;;;;;;15.96;62.00;100855.28;4036337;29;20048;-61
2022/04/14 07:16:28;;;;;;;33.38;23.30;;;;;;;16.14;61.90;100858.75;4036258;29;20187;-61
2022/04/14 07:18:31;;;;;;;35.47;23.90;;;;;;;16.07;62.19;100859.63;4041468;29;20049;-61
2022/04/14 07:20:34;;;;;;;29.25;21.75;;;;;;;16.07;62.27;100851.78;4036364;29;20553;-61
2022/04/14 07:22:44;;;;;;;30.45;19.77;;;;;;;15.93;62.63;100857.91;4036258;29;20444;-61
2022/04/14 07:24:48;;;;;;;31.00;22.55;;;;;;;16.03;62.21;100851.78;4029400;29;20084;-62
2022/04/14 07:26:52;;;;;;;26.37;21.57;;;;;;;16.10;62.23;100857.00;4031191;29;20049;-63
2022/04/14 07:28:55;;;;;;;32.78;21.33;;;;;;;16.25;61.52;100853.47;4011793;29;20033;-59
2022/04/14 07:30:58;;;;;;;29.33;21.00;;;;;;;16.19;61.48;100855.25;4018179;29;20049;-62
2022/04/14 07:33:01;;;;;;;30.75;21.90;;;;;;;16.14;62.56;100861.38;4031308;29;20056;-59
2022/04/14 07:35:06;;;;;;;24.60;19.50;;;;;;;16.14;62.92;100866.63;4033780;29;20405;-59
2022/04/14 07:37:10;;;;;;;29.15;21.25;;;;;;;16.21;62.37;100869.22;4029615;29;20484;-61
2022/04/14 07:39:13;;;;;;;35.20;22.75;;;;;;;16.38;61.70;100869.19;4025864;29;20140;-61
2022/04/14 07:41:15;;;;;;;26.10;20.83;;;;;;;16.24;62.02;100863.09;4015532;29;20514;-61
2022/04/14 07:43:20;;;;;;;35.55;22.58;;;;;;;16.29;61.57;100874.44;4023419;29;20557;-60
2022/04/14 07:45:23;;;;;;;34.03;21.10;;;;;;;16.38;61.75;100877.06;4041435;29;20079;-60
2022/04/14 07:47:26;;;;;;;30.55;21.35;;;;;;;16.34;61.65;100877.94;4027995;29;20677;-60
2022/04/14 07:49:29;;;;;;;35.67;24.17;;;;;;;16.39;61.82;100884.03;4028520;29;20183;-60
2022/04/14 07:51:32;;;;;;;28.85;21.90;;;;;;;16.35;61.80;100890.19;4031603;29;20056;-60
2022/04/14 07:53:35;;;;;;;31.23;21.42;;;;;;;16.47;61.18;100888.38;4036842;29;20040;-60
2022/04/14 07:55:38;;;;;;;24.17;17.30;;;;;;;16.43;61.53;100889.25;4033254;29;20044;-60
2022/04/14 07:57:41;;;;;;;28.85;22.17;;;;;;;16.60;61.58;100900.56;4029294;29;20045;-59
2022/04/14 07:59:46;;;;;;;22.80;15.00;;;;;;;16.62;61.78;100895.31;4031919;29;20049;-60
2022/04/14 08:01:48;;;;;;;32.67;21.73;;;;;;;16.84;60.72;100906.63;4030182;29;20488;-60
2022/04/14 08:03:52;;;;;;;36.60;23.40;;;;;;;16.93;60.51;100909.25;4029762;29;20033;-61
2022/04/14 08:05:55;;;;;;;32.05;22.50;;;;;;;16.84;60.35;100910.13;4030591;29;20487;-60
2022/04/14 08:08:03;;;;;;;30.08;22.40;;;;;;;16.73;60.74;100907.56;4032593;29;20048;-60
2022/04/14 08:10:07;;;;;;;29.63;21.38;;;;;;;16.84;60.93;100911.88;4030900;29;20462;-60
2022/04/14 08:12:11;;;;;;;26.98;21.15;;;;;;;16.69;60.38;100921.56;4028013;29;20080;-60
2022/04/14 08:14:14;;;;;;;29.98;21.83;;;;;;;16.84;60.27;100919.75;4024234;29;20172;-60
2022/04/14 08:16:18;;;;;;;26.48;20.65;;;;;;;16.64;60.87;100917.22;4040029;29;20463;-60
2022/04/14 08:18:21;;;;;;;25.10;18.60;;;;;;;16.41;61.10;100923.38;4025481;29;20515;-60
2022/04/14 08:20:25;;;;;;;30.30;21.80;;;;;;;16.47;61.38;100925.13;4025272;29;20522;-59
2022/04/14 08:22:28;;;;;;;25.60;22.45;;;;;;;16.61;60.90;100922.47;4040966;29;20400;-60
2022/04/14 08:24:33;;;;;;;28.83;21.23;;;;;;;16.49;61.32;100928.63;4045000;29;20418;-60
2022/04/14 08:26:36;;;;;;;27.65;21.35;;;;;;;16.40;61.82;100927.78;4051606;29;20434;-60
2022/04/14 08:28:41;;;;;;;26.98;20.95;;;;;;;16.53;61.37;100930.38;4030426;29;20460;-59
2022/04/14 08:30:44;;;;;;;28.25;23.08;;;;;;;16.57;60.88;100932.97;4037762;29;20133;-59
2022/04/14 08:32:49;;;;;;;30.08;21.50;;;;;;;16.63;61.39;100933.81;4035708;29;20538;-60
2022/04/14 08:34:52;;;;;;;28.17;22.48;;;;;;;16.50;61.21;100932.97;4037691;29;20049;-60
2022/04/14 08:36:55;;;;;;;29.42;21.27;;;;;;;16.62;61.08;100934.69;4036014;29;20056;-59
2022/04/14 08:38:58;;;;;;;25.73;21.08;;;;;;;16.66;61.07;100941.69;4046089;29;20467;-59
2022/04/14 08:41:04;;;;;;;32.15;23.10;;;;;;;16.58;60.93;100928.59;4020004;29;20409;-60
2022/04/14 08:43:18;;;;;;;30.25;21.80;;;;;;;16.51;61.63;100932.13;4046441;29;20567;-59
2022/04/14 08:45:25;;;;;;;30.00;21.85;;;;;;;16.57;60.83;100934.72;4023240;29;20091;-59
2022/04/14 08:47:29;;;;;;;26.90;20.58;;;;;;;16.57;61.22;100937.34;4030942;29;20867;-59
2022/04/14 08:49:34;;;;;;;24.73;20.00;;;;;;;16.45;61.27;100937.38;4040355;29;20060;-60
2022/04/14 08:51:39;;;;;;;24.75;20.50;;;;;;;16.56;61.34;100940.88;4037962;29;20537;-59
2022/04/14 08:53:43;;;;;;;27.55;20.50;;;;;;;16.60;60.70;100936.47;4042383;29;20077;-60
2022/04/14 08:55:46;;;;;;;24.87;21.07;;;;;;;16.69;60.48;100942.56;4025077;29;20068;-60
2022/04/14 08:57:49;;;;;;;24.27;16.97;;;;;;;16.63;60.85;100947.84;4042034;29;20510;-59
2022/04/14 08:59:52;;;;;;;28.02;22.58;;;;;;;16.94;60.38;100942.50;4040069;29;20407;-61
2022/04/14 09:01:56;;;;;;;25.13;20.45;;;;;;;16.96;59.73;100943.38;4038852;29;20384;-61
2022/04/14 09:03:59;;;;;;;30.07;21.27;;;;;;;16.91;60.34;100947.78;4041204;29;20037;-62
2022/04/14 09:06:04;;;;;;;29.45;20.52;;;;;;;17.01;59.75;100936.34;4040241;29;20365;-61
2022/04/14 09:08:07;;;;;;;24.15;20.65;;;;;;;17.07;59.64;100938.94;4030666;29;20059;-62
2022/04/14 09:10:11;;;;;;;32.22;22.45;;;;;;;17.08;59.28;100945.06;4029381;29;20552;-59
2022/04/14 09:12:14;;;;;;;29.55;23.48;;;;;;;16.97;59.50;100946.84;4028318;29;20503;-60
2022/04/14 09:14:17;;;;;;;26.93;21.60;;;;;;;16.83;59.82;100949.53;4029271;29;20419;-59
2022/04/14 09:16:21;;;;;;;28.88;21.48;;;;;;;16.78;60.13;100946.03;4032613;29;20593;-59
2022/04/14 09:18:24;;;;;;;26.25;20.17;;;;;;;16.83;60.81;100952.16;4034627;29;20047;-59
2022/04/14 09:20:31;;;;;;;30.42;21.63;;;;;;;16.96;59.85;100951.25;4027420;29;20523;-60